sensor_id;sensor_type;location;lat;lon;timestamp;P1;durP1;ratioP1;P2;durP2;ratioP2
75866;SDS011;64513;56.258;43.980;2023-04-01T00:02:12;8.90;;;3.80;;
75866;SDS011;64513;56.258;43.980;2023-04-01T00:04:36;7.62;;;3.47;;
75866;SDS011;64513;56.258;43.980;2023-04-01T00:07:00;7.17;;;3.58;;
75866;SDS011;64513;56.258;43.980;2023-04-01T00:09:24;7.37;;;3.60;;
75866;SDS011;64513;56.258;43.980;2023-04-01T00:11:50;8.10;;;3.97;;
75866;SDS011;64513;56.258;43.980;2023-04-01T00:14:14;8.63;;;3.80;;
75866;SDS011;64513;56.258;43.980;2023-04-01T00:16:38;8.15;;;4.10;;
75866;SDS011;64513;56.258;43.980;2023-04-01T00:19:02;9.68;;;4.10;;
75866;SDS011;64513;56.258;43.980;2023-04-01T00:21:27;8.55;;;4.15;;
75866;SDS011;64513;56.258;43.980;2023-04-01T00:23:51;8.30;;;4.30;;
75866;SDS011;64513;56.258;43.980;2023-04-01T00:26:15;9.08;;;4.25;;
75866;SDS011;64513;56.258;43.980;2023-04-01T00:28:41;12.23;;;4.87;;
75866;SDS011;64513;56.258;43.980;2023-04-01T00:31:06;10.00;;;4.60;;
75866;SDS011;64513;56.258;43.980;2023-04-01T00:33:32;12.33;;;5.22;;
75866;SDS011;64513;56.258;43.980;2023-04-01T00:35:56;9.67;;;4.70;;
75866;SDS011;64513;56.258;43.980;2023-04-01T00:38:42;9.48;;;4.62;;
75866;SDS011;64513;56.258;43.980;2023-04-01T00:41:07;9.65;;;5.00;;
75866;SDS011;64513;56.258;43.980;2023-04-01T00:43:34;13.80;;;5.30;;
75866;SDS011;64513;56.258;43.980;2023-04-01T00:45:58;9.80;;;4.40;;
75866;SDS011;64513;56.258;43.980;2023-04-01T00:48:23;10.70;;;4.83;;
75866;SDS011;64513;56.258;43.980;2023-04-01T00:51:09;13.13;;;4.92;;
75866;SDS011;64513;56.258;43.980;2023-04-01T00:53:36;12.23;;;5.10;;
75866;SDS011;64513;56.258;43.980;2023-04-01T00:56:22;10.08;;;4.97;;
75866;SDS011;64513;56.258;43.980;2023-04-01T00:58:50;12.63;;;5.17;;
75866;SDS011;64513;56.258;43.980;2023-04-01T01:01:16;11.90;;;5.57;;
75866;SDS011;64513;56.258;43.980;2023-04-01T01:03:41;12.33;;;5.58;;
75866;SDS011;64513;56.258;43.980;2023-04-01T01:18:27;13.75;;;5.25;;
75866;SDS011;64513;56.258;43.980;2023-04-01T01:35:53;12.60;;;5.78;;
75866;SDS011;64513;56.258;43.980;2023-04-01T01:38:21;11.03;;;5.55;;
75866;SDS011;64513;56.258;43.980;2023-04-01T01:40:48;13.15;;;5.72;;
75866;SDS011;64513;56.258;43.980;2023-04-01T01:43:17;13.17;;;6.23;;
75866;SDS011;64513;56.258;43.980;2023-04-01T01:46:04;12.23;;;5.95;;
75866;SDS011;64513;56.258;43.980;2023-04-01T01:48:30;13.75;;;5.37;;
75866;SDS011;64513;56.258;43.980;2023-04-01T01:50:56;12.78;;;5.45;;
75866;SDS011;64513;56.258;43.980;2023-04-01T01:53:21;12.43;;;5.12;;
75866;SDS011;64513;56.258;43.980;2023-04-01T01:55:46;11.37;;;5.33;;
75866;SDS011;64513;56.258;43.980;2023-04-01T01:58:12;12.55;;;5.62;;
75866;SDS011;64513;56.258;43.980;2023-04-01T02:00:38;12.23;;;5.83;;
75866;SDS011;64513;56.258;43.980;2023-04-01T02:03:04;13.00;;;5.95;;
75866;SDS011;64513;56.258;43.980;2023-04-01T02:05:29;12.65;;;5.62;;
75866;SDS011;64513;56.258;43.980;2023-04-01T02:07:55;12.90;;;5.10;;
75866;SDS011;64513;56.258;43.980;2023-04-01T02:10:41;12.37;;;5.45;;
75866;SDS011;64513;56.258;43.980;2023-04-01T02:13:09;12.40;;;5.25;;
75866;SDS011;64513;56.258;43.980;2023-04-01T02:15:34;13.78;;;5.53;;
75866;SDS011;64513;56.258;43.980;2023-04-01T02:18:01;12.33;;;5.35;;
75866;SDS011;64513;56.258;43.980;2023-04-01T02:20:27;12.27;;;5.33;;
75866;SDS011;64513;56.258;43.980;2023-04-01T02:22:54;13.88;;;5.33;;
75866;SDS011;64513;56.258;43.980;2023-04-01T02:25:21;11.53;;;5.50;;
75866;SDS011;64513;56.258;43.980;2023-04-01T02:27:47;11.97;;;5.20;;
75866;SDS011;64513;56.258;43.980;2023-04-01T02:30:12;11.40;;;5.37;;
75866;SDS011;64513;56.258;43.980;2023-04-01T02:32:38;11.93;;;5.37;;
75866;SDS011;64513;56.258;43.980;2023-04-01T02:37:49;14.50;;;6.10;;
75866;SDS011;64513;56.258;43.980;2023-04-01T02:40:15;13.55;;;5.40;;
75866;SDS011;64513;56.258;43.980;2023-04-01T02:42:40;12.18;;;5.30;;
75866;SDS011;64513;56.258;43.980;2023-04-01T02:45:05;12.37;;;5.20;;
75866;SDS011;64513;56.258;43.980;2023-04-01T02:47:30;12.10;;;5.10;;
75866;SDS011;64513;56.258;43.980;2023-04-01T02:49:54;13.35;;;5.83;;
75866;SDS011;64513;56.258;43.980;2023-04-01T02:52:19;11.03;;;4.87;;
75866;SDS011;64513;56.258;43.980;2023-04-01T02:54:43;11.43;;;5.50;;
75866;SDS011;64513;56.258;43.980;2023-04-01T02:57:07;10.57;;;5.17;;
75866;SDS011;64513;56.258;43.980;2023-04-01T02:59:31;11.22;;;5.55;;
75866;SDS011;64513;56.258;43.980;2023-04-01T03:01:56;12.07;;;5.62;;
75866;SDS011;64513;56.258;43.980;2023-04-01T03:04:20;10.28;;;5.22;;
75866;SDS011;64513;56.258;43.980;2023-04-01T03:06:44;11.00;;;4.90;;
75866;SDS011;64513;56.258;43.980;2023-04-01T03:09:08;15.73;;;5.40;;
75866;SDS011;64513;56.258;43.980;2023-04-01T03:11:32;11.48;;;5.45;;
75866;SDS011;64513;56.258;43.980;2023-04-01T03:13:56;11.43;;;5.20;;
75866;SDS011;64513;56.258;43.980;2023-04-01T03:16:20;10.70;;;5.00;;
75866;SDS011;64513;56.258;43.980;2023-04-01T03:18:44;9.73;;;4.97;;
75866;SDS011;64513;56.258;43.980;2023-04-01T03:23:54;10.78;;;5.10;;
75866;SDS011;64513;56.258;43.980;2023-04-01T03:26:19;10.25;;;4.80;;
75866;SDS011;64513;56.258;43.980;2023-04-01T03:28:43;10.38;;;4.80;;
75866;SDS011;64513;56.258;43.980;2023-04-01T03:31:08;10.63;;;5.20;;
75866;SDS011;64513;56.258;43.980;2023-04-01T03:33:32;12.50;;;5.73;;
75866;SDS011;64513;56.258;43.980;2023-04-01T03:35:56;11.38;;;5.30;;
75866;SDS011;64513;56.258;43.980;2023-04-01T03:38:21;11.63;;;5.50;;
75866;SDS011;64513;56.258;43.980;2023-04-01T03:40:45;10.63;;;5.33;;
75866;SDS011;64513;56.258;43.980;2023-04-01T03:43:09;11.70;;;5.95;;
75866;SDS011;64513;56.258;43.980;2023-04-01T03:45:34;12.63;;;5.30;;
75866;SDS011;64513;56.258;43.980;2023-04-01T03:47:58;13.40;;;6.22;;
75866;SDS011;64513;56.258;43.980;2023-04-01T03:50:22;13.45;;;5.75;;
75866;SDS011;64513;56.258;43.980;2023-04-01T03:52:46;14.98;;;6.58;;
75866;SDS011;64513;56.258;43.980;2023-04-01T03:55:11;16.77;;;7.00;;
75866;SDS011;64513;56.258;43.980;2023-04-01T03:57:36;12.37;;;6.10;;
75866;SDS011;64513;56.258;43.980;2023-04-01T04:00:00;12.95;;;5.62;;
75866;SDS011;64513;56.258;43.980;2023-04-01T04:02:26;13.60;;;6.33;;
75866;SDS011;64513;56.258;43.980;2023-04-01T04:04:50;13.10;;;6.58;;
75866;SDS011;64513;56.258;43.980;2023-04-01T04:07:14;13.62;;;6.55;;
75866;SDS011;64513;56.258;43.980;2023-04-01T04:09:38;15.03;;;6.50;;
75866;SDS011;64513;56.258;43.980;2023-04-01T04:12:02;13.98;;;6.53;;
75866;SDS011;64513;56.258;43.980;2023-04-01T04:14:27;11.33;;;5.78;;
75866;SDS011;64513;56.258;43.980;2023-04-01T04:16:51;12.40;;;5.53;;
75866;SDS011;64513;56.258;43.980;2023-04-01T04:19:15;12.25;;;5.85;;
75866;SDS011;64513;56.258;43.980;2023-04-01T04:21:40;12.83;;;5.53;;
75866;SDS011;64513;56.258;43.980;2023-04-01T04:24:05;10.85;;;5.20;;
75866;SDS011;64513;56.258;43.980;2023-04-01T04:26:30;13.05;;;6.03;;
75866;SDS011;64513;56.258;43.980;2023-04-01T04:28:54;14.85;;;6.08;;
75866;SDS011;64513;56.258;43.980;2023-04-01T04:31:19;11.90;;;5.92;;
75866;SDS011;64513;56.258;43.980;2023-04-01T04:33:45;12.07;;;5.57;;
75866;SDS011;64513;56.258;43.980;2023-04-01T04:36:09;11.30;;;5.40;;
75866;SDS011;64513;56.258;43.980;2023-04-01T04:38:34;13.03;;;6.17;;
75866;SDS011;64513;56.258;43.980;2023-04-01T04:40:58;12.00;;;5.75;;
75866;SDS011;64513;56.258;43.980;2023-04-01T04:43:22;10.55;;;5.28;;
75866;SDS011;64513;56.258;43.980;2023-04-01T04:45:46;14.73;;;5.23;;
75866;SDS011;64513;56.258;43.980;2023-04-01T04:48:11;12.78;;;5.67;;
75866;SDS011;64513;56.258;43.980;2023-04-01T04:50:39;11.90;;;5.50;;
75866;SDS011;64513;56.258;43.980;2023-04-01T04:53:04;11.60;;;5.62;;
75866;SDS011;64513;56.258;43.980;2023-04-01T04:55:28;11.10;;;5.45;;
75866;SDS011;64513;56.258;43.980;2023-04-01T04:57:52;12.60;;;5.67;;
75866;SDS011;64513;56.258;43.980;2023-04-01T05:00:16;11.63;;;5.62;;
75866;SDS011;64513;56.258;43.980;2023-04-01T05:02:41;12.45;;;5.87;;
75866;SDS011;64513;56.258;43.980;2023-04-01T05:05:05;12.13;;;5.83;;
75866;SDS011;64513;56.258;43.980;2023-04-01T05:07:31;11.05;;;5.80;;
75866;SDS011;64513;56.258;43.980;2023-04-01T05:09:55;14.37;;;6.60;;
75866;SDS011;64513;56.258;43.980;2023-04-01T05:12:20;12.25;;;6.08;;
75866;SDS011;64513;56.258;43.980;2023-04-01T05:14:44;12.88;;;6.10;;
75866;SDS011;64513;56.258;43.980;2023-04-01T05:17:08;12.80;;;6.92;;
75866;SDS011;64513;56.258;43.980;2023-04-01T05:19:34;11.30;;;5.83;;
75866;SDS011;64513;56.258;43.980;2023-04-01T05:21:58;12.50;;;5.57;;
75866;SDS011;64513;56.258;43.980;2023-04-01T05:24:22;11.63;;;5.00;;
75866;SDS011;64513;56.258;43.980;2023-04-01T05:26:46;13.20;;;5.30;;
75866;SDS011;64513;56.258;43.980;2023-04-01T05:29:10;12.90;;;4.92;;
75866;SDS011;64513;56.258;43.980;2023-04-01T05:31:34;12.15;;;5.10;;
75866;SDS011;64513;56.258;43.980;2023-04-01T05:33:59;11.10;;;5.17;;
75866;SDS011;64513;56.258;43.980;2023-04-01T05:36:23;10.55;;;4.75;;
75866;SDS011;64513;56.258;43.980;2023-04-01T05:38:47;12.43;;;4.80;;
75866;SDS011;64513;56.258;43.980;2023-04-01T05:41:11;13.43;;;5.03;;
75866;SDS011;64513;56.258;43.980;2023-04-01T05:43:36;14.10;;;5.83;;
75866;SDS011;64513;56.258;43.980;2023-04-01T05:46:01;10.47;;;4.50;;
75866;SDS011;64513;56.258;43.980;2023-04-01T05:48:26;11.05;;;5.03;;
75866;SDS011;64513;56.258;43.980;2023-04-01T05:50:50;11.43;;;4.90;;
75866;SDS011;64513;56.258;43.980;2023-04-01T05:53:15;11.65;;;4.85;;
75866;SDS011;64513;56.258;43.980;2023-04-01T05:55:39;10.48;;;5.12;;
75866;SDS011;64513;56.258;43.980;2023-04-01T05:58:03;10.33;;;4.57;;
75866;SDS011;64513;56.258;43.980;2023-04-01T06:00:28;12.50;;;5.17;;
75866;SDS011;64513;56.258;43.980;2023-04-01T06:02:52;8.48;;;4.17;;
75866;SDS011;64513;56.258;43.980;2023-04-01T06:05:51;11.78;;;3.95;;
75866;SDS011;64513;56.258;43.980;2023-04-01T06:07:44;8.28;;;4.28;;
75866;SDS011;64513;56.258;43.980;2023-04-01T06:13:16;8.65;;;4.12;;
75866;SDS011;64513;56.258;43.980;2023-04-01T06:28:00;8.50;;;4.10;;
75866;SDS011;64513;56.258;43.980;2023-04-01T06:38:57;8.63;;;3.77;;
75866;SDS011;64513;56.258;43.980;2023-04-01T06:46:58;7.37;;;3.25;;
75866;SDS011;64513;56.258;43.980;2023-04-01T06:58:39;6.80;;;3.10;;
75866;SDS011;64513;56.258;43.980;2023-04-01T07:03:53;7.90;;;3.40;;
75866;SDS011;64513;56.258;43.980;2023-04-01T07:09:24;6.37;;;2.90;;
75866;SDS011;64513;56.258;43.980;2023-04-01T07:11:50;6.28;;;2.62;;
75866;SDS011;64513;56.258;43.980;2023-04-01T07:20:11;6.53;;;2.03;;
75866;SDS011;64513;56.258;43.980;2023-04-01T07:22:52;4.30;;;1.55;;
75866;SDS011;64513;56.258;43.980;2023-04-01T07:25:38;5.10;;;1.90;;
75866;SDS011;64513;56.258;43.980;2023-04-01T07:28:05;4.65;;;1.65;;
75866;SDS011;64513;56.258;43.980;2023-04-01T07:33:19;3.60;;;1.43;;
75866;SDS011;64513;56.258;43.980;2023-04-01T08:19:59;2.70;;;0.85;;
75866;SDS011;64513;56.258;43.980;2023-04-01T08:22:42;3.10;;;0.80;;
75866;SDS011;64513;56.258;43.980;2023-04-01T08:25:29;3.45;;;0.95;;
75866;SDS011;64513;56.258;43.980;2023-04-01T08:33:46;2.40;;;0.70;;
75866;SDS011;64513;56.258;43.980;2023-04-01T08:36:14;3.47;;;1.30;;
75866;SDS011;64513;56.258;43.980;2023-04-01T08:56:30;2.83;;;0.80;;
75866;SDS011;64513;56.258;43.980;2023-04-01T09:40:23;4.47;;;0.90;;
75866;SDS011;64513;56.258;43.980;2023-04-01T09:49:02;3.45;;;1.15;;
75866;SDS011;64513;56.258;43.980;2023-04-01T09:54:50;3.65;;;1.10;;
75866;SDS011;64513;56.258;43.980;2023-04-01T10:27:21;4.30;;;1.10;;
75866;SDS011;64513;56.258;43.980;2023-04-01T12:07:12;5.85;;;1.30;;
75866;SDS011;64513;56.258;43.980;2023-04-01T12:09:54;9.63;;;1.83;;
75866;SDS011;64513;56.258;43.980;2023-04-01T12:15:27;6.35;;;1.70;;
75866;SDS011;64513;56.258;43.980;2023-04-01T12:42:11;5.33;;;1.87;;
75866;SDS011;64513;56.258;43.980;2023-04-01T13:29:47;11.20;;;1.72;;
75866;SDS011;64513;56.258;43.980;2023-04-01T14:02:03;6.92;;;2.27;;
75866;SDS011;64513;56.258;43.980;2023-04-01T14:10:36;8.75;;;1.75;;
75866;SDS011;64513;56.258;43.980;2023-04-01T14:45:53;5.60;;;2.40;;
75866;SDS011;64513;56.258;43.980;2023-04-01T14:51:40;5.20;;;2.30;;
75866;SDS011;64513;56.258;43.980;2023-04-01T15:05:29;6.30;;;2.70;;
75866;SDS011;64513;56.258;43.980;2023-04-01T15:08:14;9.00;;;3.15;;
75866;SDS011;64513;56.258;43.980;2023-04-01T15:34:41;8.63;;;2.57;;
75866;SDS011;64513;56.258;43.980;2023-04-01T15:45:43;7.65;;;2.62;;
75866;SDS011;64513;56.258;43.980;2023-04-01T16:20:13;7.67;;;3.20;;
75866;SDS011;64513;56.258;43.980;2023-04-01T16:34:16;7.53;;;3.52;;
75866;SDS011;64513;56.258;43.980;2023-04-01T16:51:25;8.30;;;3.98;;
75866;SDS011;64513;56.258;43.980;2023-04-01T17:45:48;13.90;;;4.10;;
75866;SDS011;64513;56.258;43.980;2023-04-01T17:51:19;10.70;;;4.05;;
75866;SDS011;64513;56.258;43.980;2023-04-01T18:57:55;7.90;;;3.00;;
75866;SDS011;64513;56.258;43.980;2023-04-01T19:00:41;6.67;;;2.90;;
75866;SDS011;64513;56.258;43.980;2023-04-01T19:05:52;8.45;;;2.70;;
75866;SDS011;64513;56.258;43.980;2023-04-01T19:37:50;9.93;;;4.10;;
75866;SDS011;64513;56.258;43.980;2023-04-01T20:44:31;11.88;;;5.30;;
75866;SDS011;64513;56.258;43.980;2023-04-01T21:39:31;13.53;;;4.97;;
75866;SDS011;64513;56.258;43.980;2023-04-01T22:14:29;9.78;;;4.67;;
75866;SDS011;64513;56.258;43.980;2023-04-01T22:16:56;11.63;;;4.40;;
75866;SDS011;64513;56.258;43.980;2023-04-01T22:22:28;10.25;;;4.50;;
75866;SDS011;64513;56.258;43.980;2023-04-01T22:48:16;8.75;;;4.30;;
75866;SDS011;64513;56.258;43.980;2023-04-01T22:56:33;8.53;;;4.20;;
75866;SDS011;64513;56.258;43.980;2023-04-01T23:02:04;8.83;;;4.50;;
75866;SDS011;64513;56.258;43.980;2023-04-01T23:04:49;11.50;;;4.67;;
75866;SDS011;64513;56.258;43.980;2023-04-01T23:13:10;9.70;;;5.07;;
75866;SDS011;64513;56.258;43.980;2023-04-01T23:15:34;11.25;;;4.70;;
75866;SDS011;64513;56.258;43.980;2023-04-01T23:26:55;11.67;;;4.40;;
75866;SDS011;64513;56.258;43.980;2023-04-01T23:29:21;9.53;;;4.65;;
75866;SDS011;64513;56.258;43.980;2023-04-01T23:32:22;10.43;;;4.72;;
75866;SDS011;64513;56.258;43.980;2023-04-01T23:34:32;9.90;;;4.22;;
75866;SDS011;64513;56.258;43.980;2023-04-01T23:36:59;9.55;;;4.50;;
75866;SDS011;64513;56.258;43.980;2023-04-01T23:39:44;13.37;;;4.70;;
75866;SDS011;64513;56.258;43.980;2023-04-01T23:44:38;10.53;;;5.05;;
75866;SDS011;64513;56.258;43.980;2023-04-01T23:47:04;12.40;;;5.30;;
75866;SDS011;64513;56.258;43.980;2023-04-01T23:50:01;12.60;;;5.15;;
